createdAt,value
2023-01-11T00:01:45.375Z,99252.03
2023-01-11T00:04:57.609Z,99254.56
2023-01-11T00:08:10.264Z,99247.80
2023-01-11T00:11:24.389Z,99245.92
2023-01-11T00:14:36.589Z,99243.39
2023-01-11T00:17:49.042Z,99242.33
2023-01-11T00:21:01.387Z,99241.51
2023-01-11T00:24:14.485Z,99242.33
2023-01-11T00:27:26.740Z,99252.68
2023-01-11T00:30:40.033Z,99256.44
2023-01-11T00:33:52.515Z,99262.83
2023-01-11T00:37:05.769Z,99265.36
2023-01-11T00:40:19.641Z,99269.02
2023-01-11T00:43:45.400Z,99263.48
2023-01-11T00:47:12.236Z,99274.75
2023-01-11T00:50:24.970Z,99276.53
2023-01-11T00:53:37.206Z,99275.78
2023-01-11T00:56:49.452Z,99280.87
2023-01-11T01:00:02.148Z,99281.80
2023-01-11T01:03:14.903Z,99279.16
2023-01-11T01:06:27.533Z,99280.87
2023-01-11T01:09:40.087Z,99275.41
2023-01-11T01:13:07.176Z,99273.73
2023-01-11T01:16:19.684Z,99279.91
2023-01-11T01:19:33.082Z,99282.55
2023-01-11T01:22:45.648Z,99285.00
2023-01-11T01:25:58.020Z,99272.77
2023-01-11T01:29:11.840Z,99278.79
2023-01-11T01:32:24.201Z,99278.03
2023-01-11T01:35:36.548Z,99273.73
2023-01-11T01:38:48.881Z,99280.59
2023-01-11T01:42:01.281Z,99263.20
2023-01-11T01:45:28.860Z,99265.56
2023-01-11T01:48:39.353Z,99284.05
2023-01-11T01:51:56.077Z,99285.75
2023-01-11T01:55:14.447Z,99282.09
2023-01-11T01:58:32.984Z,99283.88
2023-01-11T02:01:54.838Z,99283.02
2023-01-11T02:05:07.725Z,99283.88
2023-01-11T02:08:25.773Z,99276.09
2023-01-11T02:11:41.318Z,99264.33
2023-01-11T02:14:55.278Z,99279.47
2023-01-11T02:18:07.623Z,99283.88
2023-01-11T02:21:30.198Z,99283.13
2023-01-11T02:25:09.722Z,99281.34
2023-01-11T02:28:25.720Z,99285.55
2023-01-11T02:31:44.229Z,99283.02
2023-01-11T02:35:03.298Z,99275.13
2023-01-11T02:38:21.790Z,99269.97
2023-01-11T02:41:42.495Z,99276.91
2023-01-11T02:45:08.359Z,99283.88
2023-01-11T02:48:28.620Z,99271.64
2023-01-11T02:51:47.504Z,99281.25
2023-01-11T02:55:03.922Z,99279.54
2023-01-11T02:58:18.609Z,99282.38
2023-01-11T03:01:31.168Z,99287.81
2023-01-11T03:04:46.356Z,99282.75
2023-01-11T03:08:06.255Z,99288.18
2023-01-11T03:11:31.444Z,99289.89
2023-01-11T03:14:52.747Z,99282.92
2023-01-11T03:18:14.946Z,99277.66
2023-01-11T03:21:42.678Z,99272.60
2023-01-11T03:24:59.955Z,99286.50
2023-01-11T03:28:18.823Z,99282.92
2023-01-11T03:31:37.284Z,99279.91
2023-01-11T03:34:56.336Z,99272.02
2023-01-11T03:38:14.061Z,99265.63
2023-01-11T03:41:31.695Z,99258.70
2023-01-11T03:44:48.995Z,99258.59
2023-01-11T03:48:04.009Z,99268.09
2023-01-11T03:51:19.756Z,99270.72
2023-01-11T03:54:34.971Z,99270.63
2023-01-11T03:57:51.650Z,99270.72
2023-01-11T04:01:04.963Z,99274.86
2023-01-11T04:04:17.046Z,99275.61
2023-01-11T04:07:29.363Z,99261.50
2023-01-11T04:10:41.704Z,99269.33
2023-01-11T04:13:55.746Z,99259.72
2023-01-11T04:17:08.813Z,99258.12
2023-01-11T04:20:21.510Z,99258.12
2023-01-11T04:23:33.771Z,99246.77
2023-01-11T04:26:46.219Z,99257.74
2023-01-11T04:29:58.609Z,99248.34
2023-01-11T04:33:13.156Z,99247.42
2023-01-11T04:36:25.627Z,99251.93
2023-01-11T04:39:37.808Z,99245.06
2023-01-11T04:42:52.279Z,99252.78
2023-01-11T04:46:07.700Z,99252.78
2023-01-11T04:49:20.599Z,99247.80
2023-01-11T04:52:33.120Z,99249.47
2023-01-11T04:55:46.713Z,99247.80
2023-01-11T04:59:00.139Z,99248.55
2023-01-11T05:02:12.864Z,99258.12
2023-01-11T05:05:25.185Z,99263.38
2023-01-11T05:08:38.421Z,99257.37
2023-01-11T05:11:51.241Z,99259.17
2023-01-11T05:15:06.116Z,99256.44
2023-01-11T05:18:18.430Z,99253.06
2023-01-11T05:21:33.645Z,99253.81
2023-01-11T05:24:45.908Z,99251.18
2023-01-11T05:27:58.219Z,99248.45
2023-01-11T05:31:11.185Z,99250.16
2023-01-11T05:34:24.412Z,99258.80
2023-01-11T05:37:37.270Z,99253.81
2023-01-11T05:40:49.437Z,99250.33
2023-01-11T05:44:16.649Z,99257.30
2023-01-11T05:47:28.950Z,99254.73
2023-01-11T05:50:41.515Z,99253.33
2023-01-11T05:53:54.018Z,99256.17
2023-01-11T05:57:08.653Z,99252.48
2023-01-11T06:00:23.630Z,99247.42
2023-01-11T06:03:36.186Z,99242.53
2023-01-11T06:06:48.437Z,99236.32
2023-01-11T06:10:00.722Z,99233.80
2023-01-11T06:13:29.823Z,99226.96
2023-01-11T06:16:42.333Z,99234.09
2023-01-11T06:19:54.631Z,99228.84
2023-01-11T06:23:07.117Z,99222.63
2023-01-11T06:26:22.440Z,99238.41
2023-01-11T06:29:34.817Z,99224.33
2023-01-11T06:32:47.015Z,99225.15
2023-01-11T06:36:00.129Z,99227.03
2023-01-11T06:39:12.873Z,99230.41
2023-01-11T06:42:25.256Z,99234.64
2023-01-11T06:45:38.387Z,99234.44
2023-01-11T06:48:51.514Z,99235.40
2023-01-11T06:52:04.188Z,99230.78
2023-01-11T06:55:17.811Z,99234.92
2023-01-11T06:58:31.586Z,99230.30
2023-01-11T07:01:44.251Z,99232.19
2023-01-11T07:04:56.736Z,99228.63
2023-01-11T07:08:09.965Z,99224.13
2023-01-11T07:11:22.542Z,99225.42
2023-01-11T07:14:35.127Z,99226.09
2023-01-11T07:17:49.478Z,99225.89
2023-01-11T07:21:02.415Z,99229.38
2023-01-11T07:24:15.287Z,99224.29
2023-01-11T07:27:27.752Z,99215.64
2023-01-11T07:30:56.894Z,99214.33
2023-01-11T07:33:59.640Z,99219.28
2023-01-11T07:37:28.672Z,99216.38
2023-01-11T07:40:27.755Z,99221.53
2023-01-11T07:43:40.064Z,99222.59
2023-01-11T07:46:52.603Z,99226.52
2023-01-11T07:50:05.225Z,99211.37
2023-01-11T07:53:19.037Z,99208.84
2023-01-11T07:56:31.441Z,99203.39
2023-01-11T07:59:43.605Z,99194.26
2023-01-11T08:02:59.343Z,99211.44
2023-01-11T08:06:14.564Z,99208.45
2023-01-11T08:09:27.218Z,99206.95
2023-01-11T08:12:53.796Z,99206.56
2023-01-11T08:16:07.052Z,99194.36
2023-01-11T08:19:19.357Z,99191.63
2023-01-11T08:22:31.550Z,99188.59
2023-01-11T08:25:44.198Z,99194.50
2023-01-11T08:28:56.907Z,99193.55
2023-01-11T08:32:09.376Z,99189.77
2023-01-11T08:35:22.163Z,99199.16
2023-01-11T08:38:34.422Z,99184.32
2023-01-11T08:41:46.692Z,99185.41
2023-01-11T08:44:59.132Z,99190.06
2023-01-11T08:48:12.907Z,99191.02
2023-01-11T08:51:25.281Z,99196.63
2023-01-11T08:54:37.553Z,99196.13
2023-01-11T08:57:49.828Z,99194.86
2023-01-11T09:01:06.951Z,99194.97
2023-01-11T09:04:24.656Z,99194.86
2023-01-11T09:07:31.719Z,99196.02
2023-01-11T09:10:44.395Z,99184.95
2023-01-11T09:13:56.566Z,99189.89
2023-01-11T09:17:08.879Z,99186.22
2023-01-11T09:20:22.199Z,99176.97
2023-01-11T09:23:34.566Z,99181.28
2023-01-11T09:26:46.918Z,99171.43
2023-01-11T09:29:59.419Z,99170.81
2023-01-11T09:33:11.934Z,99165.09
2023-01-11T09:36:26.236Z,99156.84
2023-01-11T09:39:39.220Z,99152.69
2023-01-11T09:42:56.423Z,99150.58
2023-01-11T09:46:12.762Z,99145.80
2023-01-11T09:49:29.688Z,99132.87
2023-01-11T09:52:47.454Z,99136.84
2023-01-11T09:56:02.971Z,99142.11
2023-01-11T09:59:22.425Z,99136.33
2023-01-11T10:02:41.832Z,99139.79
2023-01-11T10:06:09.138Z,99132.31
2023-01-11T10:18:29.328Z,99101.79
2023-01-11T10:19:42.282Z,99101.63
2023-01-11T10:23:00.219Z,99095.38
2023-01-11T10:26:15.029Z,99079.45
2023-01-11T10:29:50.465Z,99077.54
2023-01-11T10:33:08.418Z,99074.94
2023-01-11T10:36:32.583Z,99073.23
2023-01-11T10:39:57.607Z,99074.31
2023-01-11T10:43:19.300Z,99076.02
2023-01-11T10:46:34.546Z,99074.10
2023-01-11T10:49:55.986Z,99070.88
2023-01-11T10:53:17.174Z,99072.06
2023-01-11T10:56:37.242Z,99076.23
2023-01-11T11:00:17.627Z,99069.03
2023-01-11T11:04:10.759Z,99065.92
2023-01-11T11:07:31.133Z,99067.48
2023-01-11T11:10:49.790Z,99073.59
2023-01-11T11:14:07.428Z,99072.53
2023-01-11T11:17:28.007Z,99057.28
2023-01-11T11:20:44.216Z,99057.33
2023-01-11T11:24:01.767Z,99040.41
2023-01-11T11:27:25.723Z,99045.77
2023-01-11T11:30:41.271Z,99038.09
2023-01-11T11:33:54.149Z,99028.03
2023-01-11T11:37:06.914Z,99022.74
2023-01-11T11:40:37.019Z,99008.56
2023-01-11T11:43:51.244Z,99006.96
2023-01-11T11:47:08.981Z,99004.63
2023-01-11T11:50:45.056Z,99000.74
2023-01-11T11:53:55.776Z,98997.53
2023-01-11T11:57:21.796Z,98993.22
2023-01-11T12:00:42.676Z,98994.64
2023-01-11T12:03:56.609Z,98971.75
2023-01-11T12:07:19.454Z,98974.55
2023-01-11T12:10:33.563Z,98974.58
2023-01-11T12:13:47.072Z,98973.20
2023-01-11T12:16:59.272Z,98976.10
2023-01-11T12:20:40.996Z,98980.72
2023-01-11T12:23:53.541Z,98972.03
2023-01-11T12:27:13.035Z,98967.75
2023-01-11T12:30:33.179Z,98966.55
2023-01-11T12:33:52.281Z,98964.39
2023-01-11T12:37:11.441Z,98953.48
2023-01-11T12:40:30.596Z,98951.17
2023-01-11T12:43:55.827Z,98949.52
2023-01-11T12:47:24.351Z,98944.38
2023-01-11T12:50:41.419Z,98935.72
2023-01-11T12:54:08.936Z,98936.91
2023-01-11T12:57:29.027Z,98932.56
2023-01-11T13:01:16.498Z,98928.26
2023-01-11T13:05:05.015Z,98921.19
2023-01-11T13:08:19.833Z,98921.24
2023-01-11T13:11:43.641Z,98911.48
2023-01-11T13:15:13.549Z,98911.27
2023-01-11T13:18:34.750Z,98922.08
2023-01-11T13:21:55.728Z,98915.16
2023-01-11T13:25:17.406Z,98911.31
2023-01-11T13:28:38.045Z,98910.73
2023-01-11T13:31:54.386Z,98901.59
2023-01-11T13:35:11.739Z,98911.70
2023-01-11T13:38:34.789Z,98925.28
2023-01-11T13:41:51.987Z,98913.88
2023-01-11T13:45:05.367Z,98914.95
2023-01-11T13:48:22.966Z,98914.95
2023-01-11T13:51:41.966Z,98916.53
2023-01-11T13:57:59.504Z,98909.31
2023-01-11T14:01:17.116Z,98915.70
2023-01-11T14:04:34.577Z,98902.97
2023-01-11T14:08:02.179Z,98905.70
2023-01-11T14:11:21.020Z,98894.42
2023-01-11T14:23:41.132Z,98892.72
2023-01-11T14:27:11.592Z,98892.56
2023-01-11T14:30:48.870Z,98895.57
2023-01-11T14:35:01.493Z,98896.03
2023-01-11T14:39:03.216Z,98889.52
2023-01-11T14:42:53.989Z,98886.61
2023-01-11T14:46:38.568Z,98891.53
2023-01-11T14:50:06.595Z,98888.23
2023-01-11T14:53:23.580Z,98883.86
2023-01-11T14:56:59.162Z,98890.39
2023-01-11T15:00:34.338Z,98890.11
2023-01-11T15:03:57.617Z,98887.11
2023-01-11T15:07:27.770Z,98887.19
2023-01-11T15:11:05.476Z,98878.99
2023-01-11T15:14:38.185Z,98875.77
2023-01-11T15:18:20.480Z,98875.09
2023-01-11T15:21:34.087Z,98876.99
2023-01-11T15:24:49.557Z,98861.82
2023-01-11T15:28:03.592Z,98866.27
2023-01-11T15:31:44.164Z,98868.70
2023-01-11T15:34:58.333Z,98863.63
2023-01-11T15:38:18.101Z,98869.77
2023-01-11T15:41:54.439Z,98874.48
2023-01-11T15:46:00.151Z,98865.66
2023-01-11T15:49:45.534Z,98856.91
2023-01-11T15:53:42.699Z,98862.29
2023-01-11T15:57:28.826Z,98819.35
2023-01-11T16:10:44.549Z,98855.20
2023-01-11T16:14:34.388Z,98854.84
2023-01-11T16:17:50.650Z,98849.36
2023-01-11T16:21:12.838Z,98846.61
2023-01-11T16:24:29.677Z,98835.86
2023-01-11T16:27:42.895Z,98837.42
2023-01-11T16:31:03.808Z,98840.16
2023-01-11T16:34:20.971Z,98836.09
2023-01-11T16:37:34.113Z,98833.23
2023-01-11T16:40:51.869Z,98834.27
2023-01-11T16:44:09.150Z,98824.84
2023-01-11T16:47:24.327Z,98816.74
2023-01-11T16:50:36.999Z,98820.52
2023-01-11T16:53:53.915Z,98821.92
2023-01-11T16:57:08.111Z,98817.77
2023-01-11T17:00:34.943Z,98815.98
2023-01-11T17:03:55.464Z,98814.11
2023-01-11T17:07:18.487Z,98829.78
2023-01-11T17:10:33.502Z,98812.39
2023-01-11T17:14:31.788Z,98831.09
2023-01-11T17:17:46.705Z,98835.78
2023-01-11T17:21:01.706Z,98829.31
2023-01-11T17:24:18.393Z,98832.44
2023-01-11T17:27:35.742Z,98824.20
2023-01-11T17:30:52.471Z,98831.04
2023-01-11T17:34:20.531Z,98830.94
2023-01-11T17:37:33.108Z,98822.80
2023-01-11T17:40:47.064Z,98818.78
2023-01-11T17:44:14.089Z,98815.20
2023-01-11T17:47:26.776Z,98822.32
2023-01-11T17:50:42.901Z,98817.92
2023-01-11T17:53:58.093Z,98820.92
2023-01-11T17:57:11.395Z,98823.07
2023-01-11T18:00:35.359Z,98811.56
2023-01-11T18:03:52.773Z,98807.91
2023-01-11T18:07:15.853Z,98816.88
2023-01-11T18:10:32.749Z,98812.19
2023-01-11T18:13:45.108Z,98810.33
2023-01-11T18:17:10.075Z,98810.78
2023-01-11T18:20:43.890Z,98806.48
2023-01-11T18:23:56.790Z,98807.50
2023-01-11T18:27:32.478Z,98806.36
2023-01-11T18:30:46.780Z,98801.68
2023-01-11T18:33:59.395Z,98796.80
2023-01-11T18:37:13.840Z,98808.88
2023-01-11T18:40:27.270Z,98812.06
2023-01-11T18:43:39.630Z,98815.70
2023-01-11T18:46:51.941Z,98829.64
2023-01-11T18:50:05.271Z,98834.27
2023-01-11T18:53:20.321Z,98829.95
2023-01-11T18:56:32.976Z,98839.21
2023-01-11T18:59:45.397Z,98834.83
2023-01-11T19:02:57.946Z,98836.59
2023-01-11T19:06:12.096Z,98837.77
2023-01-11T19:09:24.447Z,98837.55
2023-01-11T19:12:36.750Z,98836.20
2023-01-11T19:15:49.102Z,98833.52
2023-01-11T19:19:03.008Z,98822.64
2023-01-11T19:22:16.412Z,98835.45
2023-01-11T19:25:29.066Z,98803.95
2023-01-11T19:28:43.385Z,98839.05
2023-01-11T19:31:56.498Z,98849.02
2023-01-11T19:35:09.060Z,98836.46
2023-01-11T19:38:21.575Z,98841.34
2023-01-11T19:41:35.972Z,98843.97
2023-01-11T19:44:48.387Z,98846.08
2023-01-11T19:48:00.667Z,98860.83
2023-01-11T19:51:16.177Z,98850.45
2023-01-11T19:54:29.406Z,98848.03
2023-01-11T19:57:41.907Z,98856.55
2023-01-11T20:00:54.253Z,98855.60
2023-01-11T20:04:07.403Z,98853.27
2023-01-11T20:07:21.290Z,98851.98
2023-01-11T20:10:33.897Z,98859.33
2023-01-11T20:13:49.407Z,98865.08
2023-01-11T20:17:01.827Z,98852.42
2023-01-11T20:20:17.337Z,98866.36
2023-01-11T20:23:30.338Z,98863.65
2023-01-11T20:26:42.745Z,98867.88
2023-01-11T20:29:55.219Z,98859.17
2023-01-11T20:33:10.112Z,98865.27
2023-01-11T20:36:24.492Z,98869.64
2023-01-11T20:39:36.859Z,98870.88
2023-01-11T20:42:49.217Z,98847.19
2023-01-11T20:46:04.589Z,98846.24
2023-01-11T20:49:17.838Z,98845.42
2023-01-11T20:52:30.412Z,98851.91
2023-01-11T20:55:45.578Z,98858.90
2023-01-11T20:58:58.222Z,98852.75
2023-01-11T21:02:10.708Z,98835.53
2023-01-11T21:05:23.497Z,98841.28
2023-01-11T21:08:35.888Z,98838.30
2023-01-11T21:11:50.934Z,98837.91
2023-01-11T21:15:03.685Z,98837.21
2023-01-11T21:18:16.270Z,98813.42
2023-01-11T21:21:29.083Z,98840.92
2023-01-11T21:24:42.017Z,98838.30
2023-01-11T21:27:54.453Z,98836.73
2023-01-11T21:31:10.775Z,98838.25
2023-01-11T21:34:23.179Z,98830.83
2023-01-11T21:37:35.428Z,98840.86
2023-01-11T21:40:47.814Z,98838.39
2023-01-11T21:44:00.235Z,98840.25
2023-01-11T21:47:14.791Z,98828.97
2023-01-11T21:50:27.131Z,98848.62
2023-01-11T21:53:40.393Z,98859.51
2023-01-11T21:56:53.267Z,98876.73
2023-01-11T22:00:08.887Z,98879.77
2023-01-11T22:03:32.063Z,98881.63
2023-01-11T22:06:47.382Z,98889.05
2023-01-11T22:10:04.822Z,98895.13
2023-01-11T22:13:14.601Z,98889.65
2023-01-11T22:16:27.021Z,98890.98
2023-01-11T22:19:39.426Z,98888.58
2023-01-11T22:22:52.003Z,98895.75
2023-01-11T22:26:08.786Z,98876.84
2023-01-11T22:29:21.039Z,98887.47
2023-01-11T22:32:35.561Z,98896.66
2023-01-11T22:35:47.792Z,98887.59
2023-01-11T22:39:00.414Z,98877.41
2023-01-11T22:42:13.272Z,98884.71
2023-01-11T22:45:25.896Z,98880.63
2023-01-11T22:48:38.326Z,98879.25
2023-01-11T22:51:51.455Z,98870.92
2023-01-11T22:55:03.842Z,98876.63
2023-01-11T22:58:16.181Z,98868.69
2023-01-11T23:01:31.111Z,98879.83
2023-01-11T23:04:43.501Z,98882.45
2023-01-11T23:07:55.777Z,98890.97
2023-01-11T23:11:08.438Z,98894.19
2023-01-11T23:14:23.709Z,98897.55
2023-01-11T23:17:35.923Z,98888.25
2023-01-11T23:20:48.295Z,98887.13
2023-01-11T23:24:00.930Z,98881.82
2023-01-11T23:27:13.447Z,98886.21
2023-01-11T23:30:26.379Z,98891.95
2023-01-11T23:33:38.595Z,98901.58
2023-01-11T23:36:51.183Z,98897.64
2023-01-11T23:40:03.535Z,98902.72
2023-01-11T23:43:15.707Z,98911.04
2023-01-11T23:46:42.257Z,98915.73
2023-01-11T23:49:57.721Z,98920.13
2023-01-11T23:53:10.025Z,98926.88
2023-01-11T23:56:23.696Z,98931.20
2023-01-11T23:59:36.159Z,98939.89
